Time;durP1;ratioP1;P1;durP2;ratioP2;P2;SDS_P1;SDS_P2;PMS_P1;PMS_P2;Temp;Humidity;BMP_temperature;BMP_pressure;BME280_temperature;BME280_humidity;BME280_pressure;Samples;Min_cycle;Max_cycle;Signal;HPM_P1;HPM_P2
2022/08/05 00:02:14;;;;;;;211.82;188.63;;;18.30;98.30;;;;;;5050339;28;20081;-71
2022/08/05 00:04:41;;;;;;;210.63;187.57;;;18.30;98.40;;;;;;5049241;28;20046;-71
2022/08/05 00:07:08;;;;;;;216.82;193.23;;;18.30;98.30;;;;;;5048839;28;20056;-71
2022/08/05 00:09:35;;;;;;;205.57;182.98;;;18.20;98.40;;;;;;5049864;28;20403;-71
2022/08/05 00:12:02;;;;;;;210.82;185.75;;;18.30;98.50;;;;;;5065720;28;20053;-71
2022/08/05 00:14:29;;;;;;;208.82;185.20;;;18.20;98.50;;;;;;5049315;28;20763;-72
2022/08/05 00:16:57;;;;;;;211.75;185.98;;;18.20;98.80;;;;;;5067837;28;20092;-72
2022/08/05 00:19:25;;;;;;;218.77;191.48;;;18.20;98.90;;;;;;5052513;28;20045;-71
2022/08/05 00:21:52;;;;;;;210.50;187.13;;;18.20;98.60;;;;;;5052656;28;20120;-71
2022/08/05 00:24:19;;;;;;;217.20;192.48;;;18.10;98.80;;;;;;5053939;28;20049;-71
2022/08/05 00:26:46;;;;;;;216.05;192.00;;;18.10;98.70;;;;;;5053920;28;20060;-72
2022/08/05 00:29:13;;;;;;;208.93;184.75;;;18.10;98.60;;;;;;5047421;28;20138;-72
2022/08/05 00:31:40;;;;;;;206.88;183.95;;;18.10;98.60;;;;;;5032756;28;20594;-71
2022/08/05 00:34:08;;;;;;;219.27;188.38;;;18.10;98.90;;;;;;5033757;28;20053;-72
2022/08/05 00:36:35;;;;;;;207.52;184.75;;;18.10;98.80;;;;;;5033772;28;20057;-72
2022/08/05 00:39:02;;;;;;;209.82;186.23;;;18.10;98.70;;;;;;5048993;28;20081;-71
2022/08/05 00:41:31;;;;;;;209.05;186.00;;;18.10;98.60;;;;;;5033530;28;20050;-71
2022/08/05 00:43:58;;;;;;;215.93;191.30;;;18.10;98.60;;;;;;5048837;28;20050;-71
2022/08/05 00:46:25;;;;;;;208.40;183.55;;;18.10;98.60;;;;;;5033800;28;20057;-71
2022/08/05 00:48:53;;;;;;;211.32;188.00;;;18.10;98.80;;;;;;5048446;28;20046;-71
2022/08/05 00:51:22;;;;;;;213.07;189.50;;;18.10;98.80;;;;;;5048615;28;20141;-71
2022/08/05 00:53:49;;;;;;;222.88;198.00;;;18.20;98.80;;;;;;5065345;28;20084;-72
2022/08/05 00:56:17;;;;;;;225.40;200.80;;;18.10;98.70;;;;;;5031971;28;20041;-71
2022/08/05 00:58:44;;;;;;;210.38;186.15;;;18.10;98.90;;;;;;5048361;28;21057;-71
2022/08/05 01:01:14;;;;;;;209.10;184.73;;;18.20;99.30;;;;;;5033592;28;20050;-71
2022/08/05 01:03:42;;;;;;;204.75;182.07;;;18.10;99.60;;;;;;5066322;28;20056;-72
2022/08/05 01:06:10;;;;;;;210.18;184.10;;;18.10;99.50;;;;;;5053252;28;20049;-72
2022/08/05 01:08:39;;;;;;;208.30;183.13;;;18.00;99.40;;;;;;5068736;28;20183;-71
2022/08/05 01:11:10;;;;;;;218.70;193.00;;;18.00;99.30;;;;;;5052192;28;20482;-71
2022/08/05 01:13:44;;;;;;;226.98;198.55;;;18.00;99.30;;;;;;5051372;28;20096;-71
2022/08/05 01:16:17;;;;;;;221.60;194.30;;;18.00;99.50;;;;;;5051453;28;20049;-71
2022/08/05 01:18:50;;;;;;;219.30;191.95;;;18.00;99.30;;;;;;5051631;28;21153;-72
2022/08/05 01:21:33;;;;;;;220.82;192.73;;;18.00;99.10;;;;;;5051615;28;20208;-71
2022/08/05 01:24:19;;;;;;;;;;;18.00;99.10;;;;;;5053434;28;20052;-72
2022/08/05 01:26:59;;;;;;;218.95;181.95;;;18.00;99.20;;;;;;5051791;28;20015;-71
2022/08/05 01:29:34;;;;;;;217.40;187.05;;;18.00;99.10;;;;;;5051674;28;20061;-71
2022/08/05 01:32:06;;;;;;;218.07;191.55;;;18.00;99.20;;;;;;5051533;28;20526;-72
2022/08/05 01:34:37;;;;;;;229.02;200.80;;;18.00;99.10;;;;;;5051160;28;20124;-71
2022/08/05 01:37:10;;;;;;;245.38;216.85;;;18.10;99.40;;;;;;5067323;28;21988;-71
2022/08/05 01:39:39;;;;;;;257.60;229.30;;;18.00;99.30;;;;;;5051410;28;20050;-71
2022/08/05 01:42:09;;;;;;;257.20;228.90;;;18.00;99.30;;;;;;5068114;28;20045;-71
2022/08/05 01:44:38;;;;;;;239.80;208.68;;;18.00;99.20;;;;;;5051585;28;20053;-71
2022/08/05 01:47:07;;;;;;;228.63;201.13;;;18.00;99.40;;;;;;5051221;28;20068;-74
2022/08/05 01:49:36;;;;;;;233.77;204.95;;;18.00;99.40;;;;;;5051415;28;20042;-72
2022/08/05 01:52:03;;;;;;;226.45;200.40;;;18.00;99.40;;;;;;5052819;28;20471;-71
2022/08/05 01:54:37;;;;;;;250.98;220.68;;;18.00;99.30;;;;;;5050557;28;20046;-72
2022/08/05 01:57:06;;;;;;;250.20;219.32;;;18.00;99.40;;;;;;5050804;28;20057;-72
2022/08/05 01:59:35;;;;;;;222.32;196.50;;;17.90;99.30;;;;;;5052059;28;20447;-72
2022/08/05 02:02:04;;;;;;;207.98;181.05;;;17.90;99.40;;;;;;5050965;28;20050;-72
2022/08/05 02:04:35;;;;;;;206.25;181.43;;;17.90;99.50;;;;;;5050829;28;20156;-71
2022/08/05 02:07:02;;;;;;;207.57;181.95;;;17.90;99.40;;;;;;5050902;28;20049;-71
2022/08/05 02:09:29;;;;;;;204.52;181.15;;;17.90;99.40;;;;;;5065973;28;20045;-72
2022/08/05 02:12:04;;;;;;;204.77;179.02;;;17.90;99.40;;;;;;5052207;28;20073;-71
2022/08/05 02:14:37;;;;;;;205.65;178.68;;;17.90;99.50;;;;;;5052321;28;20500;-72
2022/08/05 02:17:10;;;;;;;213.98;184.50;;;17.90;99.50;;;;;;5050474;28;20041;-72
2022/08/05 02:19:43;;;;;;;202.80;173.73;;;17.90;99.70;;;;;;5050736;28;20060;-71
2022/08/05 02:22:17;;;;;;;199.98;174.07;;;17.90;99.60;;;;;;5051237;28;20045;-72
2022/08/05 02:24:50;;;;;;;195.13;172.98;;;17.90;99.60;;;;;;5052401;28;20076;-72
2022/08/05 02:27:19;;;;;;;197.25;171.48;;;17.90;99.60;;;;;;5051687;28;20132;-71
2022/08/05 02:29:47;;;;;;;195.52;171.80;;;17.90;99.50;;;;;;5050476;28;20475;-72
2022/08/05 02:32:18;;;;;;;195.13;171.27;;;17.90;99.50;;;;;;5051061;28;20052;-72
2022/08/05 02:34:46;;;;;;;196.88;169.65;;;17.80;99.50;;;;;;5052031;28;20164;-72
2022/08/05 02:37:14;;;;;;;203.52;176.55;;;17.80;99.60;;;;;;5051599;28;20045;-71
2022/08/05 02:39:42;;;;;;;198.93;176.77;;;17.80;99.60;;;;;;5050827;28;20049;-71
2022/08/05 02:42:10;;;;;;;217.60;189.30;;;17.80;99.80;;;;;;5050119;28;20060;-71
2022/08/05 02:44:39;;;;;;;219.10;187.90;;;17.80;99.80;;;;;;5052114;28;20112;-71
2022/08/05 02:47:08;;;;;;;216.98;187.25;;;17.80;99.90;;;;;;5050034;28;20116;-72
2022/08/05 02:49:40;;;;;;;213.70;186.52;;;17.80;99.90;;;;;;5051749;28;20057;-71
2022/08/05 02:52:10;;;;;;;212.80;183.82;;;17.70;99.90;;;;;;5050214;28;20051;-72
2022/08/05 02:54:39;;;;;;;210.25;181.60;;;17.70;99.80;;;;;;5050029;28;20828;-72
2022/08/05 02:57:08;;;;;;;214.07;186.27;;;17.70;99.80;;;;;;5051144;28;20081;-72
2022/08/05 02:59:36;;;;;;;211.77;183.82;;;17.70;99.70;;;;;;5051644;28;20067;-71
2022/08/05 03:02:04;;;;;;;214.10;184.05;;;17.70;99.90;;;;;;5051291;28;20519;-71
2022/08/05 03:04:32;;;;;;;205.10;178.57;;;17.70;99.90;;;;;;5066118;28;20057;-72
2022/08/05 03:07:01;;;;;;;211.48;186.30;;;17.70;99.90;;;;;;5050830;28;21014;-71
2022/08/05 03:09:28;;;;;;;214.57;183.82;;;17.70;99.90;;;;;;5050282;28;20053;-72
2022/08/05 03:11:55;;;;;;;209.23;182.45;;;17.70;99.90;;;;;;5049765;28;20092;-72
2022/08/05 03:14:22;;;;;;;206.77;183.85;;;17.60;99.80;;;;;;5047871;28;20145;-72
2022/08/05 03:16:49;;;;;;;205.50;180.88;;;17.60;99.90;;;;;;5049486;28;20053;-72
2022/08/05 03:19:16;;;;;;;207.10;180.45;;;17.60;99.80;;;;;;5049481;28;20049;-71
2022/08/05 03:21:42;;;;;;;208.27;179.65;;;17.60;99.80;;;;;;5049462;28;20501;-72
2022/08/05 03:24:11;;;;;;;209.23;180.50;;;17.60;99.90;;;;;;5050932;28;20503;-71
2022/08/05 03:26:38;;;;;;;198.23;173.82;;;17.60;99.90;;;;;;5049929;28;20141;-72
2022/08/05 03:29:05;;;;;;;207.55;178.45;;;17.60;99.80;;;;;;5049214;28;20124;-72
2022/08/05 03:31:33;;;;;;;214.80;180.32;;;17.60;99.80;;;;;;5050242;28;20428;-71
2022/08/05 03:34:00;;;;;;;208.45;180.57;;;17.60;99.90;;;;;;5049874;28;20049;-72
2022/08/05 03:36:27;;;;;;;210.35;181.25;;;17.60;99.90;;;;;;5049609;28;20052;-71
2022/08/05 03:38:54;;;;;;;207.38;181.43;;;17.60;99.90;;;;;;5050614;28;20052;-71
2022/08/05 03:41:23;;;;;;;206.50;179.77;;;17.50;99.90;;;;;;5049350;28;20490;-72
2022/08/05 03:43:49;;;;;;;207.90;179.32;;;17.50;99.90;;;;;;5066451;28;20077;-71
2022/08/05 03:46:16;;;;;;;203.30;176.75;;;17.50;99.90;;;;;;5049429;28;20047;-71
2022/08/05 03:48:43;;;;;;;204.93;179.00;;;17.50;99.90;;;;;;5047709;28;20052;-72
2022/08/05 03:51:15;;;;;;;194.18;169.00;;;17.50;99.90;;;;;;5048860;28;20129;-72
2022/08/05 03:53:50;;;;;;;206.18;177.40;;;17.40;99.90;;;;;;5050644;28;20059;-72
2022/08/05 03:56:26;;;;;;;192.80;163.25;;;17.40;99.90;;;;;;5050278;28;20466;-71
2022/08/05 03:58:56;;;;;;;196.52;169.25;;;17.40;99.90;;;;;;5048829;28;20585;-71
2022/08/05 04:01:25;;;;;;;196.55;169.70;;;17.40;99.90;;;;;;5049295;28;20052;-72
2022/08/05 04:03:54;;;;;;;192.25;167.32;;;17.40;99.90;;;;;;5050648;28;20045;-71
2022/08/05 04:06:21;;;;;;;194.82;168.40;;;17.40;99.90;;;;;;5048795;28;20084;-71
2022/08/05 04:08:48;;;;;;;192.10;166.25;;;17.40;99.90;;;;;;5048680;28;20046;-72
2022/08/05 04:11:15;;;;;;;189.68;164.23;;;17.40;99.90;;;;;;5048962;28;20056;-71
2022/08/05 04:13:45;;;;;;;189.85;164.63;;;17.40;99.90;;;;;;5049028;28;20571;-71
2022/08/05 04:16:13;;;;;;;185.38;158.98;;;17.30;99.90;;;;;;5050203;28;20080;-72
2022/08/05 04:18:40;;;;;;;183.70;160.57;;;17.30;99.90;;;;;;5048507;28;21051;-71
2022/08/05 04:21:07;;;;;;;192.30;166.02;;;17.30;99.90;;;;;;5050193;28;20164;-72
2022/08/05 04:23:35;;;;;;;187.02;163.40;;;17.30;99.90;;;;;;5048891;28;20155;-72
2022/08/05 04:26:03;;;;;;;190.45;164.57;;;17.30;99.90;;;;;;5082701;28;20499;-71
2022/08/05 04:28:30;;;;;;;192.38;166.55;;;17.30;99.90;;;;;;5050162;28;20046;-71
2022/08/05 04:30:59;;;;;;;200.45;174.05;;;17.30;99.90;;;;;;5050040;28;20056;-71
2022/08/05 04:33:26;;;;;;;197.35;171.30;;;17.30;99.90;;;;;;5048480;28;20056;-71
2022/08/05 04:35:53;;;;;;;198.57;173.13;;;17.30;99.90;;;;;;5049989;28;20053;-72
2022/08/05 04:38:20;;;;;;;238.10;206.00;;;17.30;99.90;;;;;;5049618;28;20147;-71
2022/08/05 04:40:46;;;;;;;232.73;199.85;;;17.30;99.90;;;;;;5082366;28;20046;-72
2022/08/05 04:43:13;;;;;;;227.13;197.88;;;17.30;99.90;;;;;;5065541;28;20046;-72
2022/08/05 04:45:40;;;;;;;229.38;196.05;;;17.30;99.90;;;;;;5050415;28;20515;-72
2022/08/05 04:48:10;;;;;;;219.73;186.68;;;17.30;99.90;;;;;;5049807;28;20497;-72
2022/08/05 04:50:41;;;;;;;233.32;199.43;;;17.30;99.90;;;;;;5049999;28;20137;-72
2022/08/05 04:53:09;;;;;;;212.57;183.68;;;17.30;99.90;;;;;;5050265;28;20077;-72
2022/08/05 04:55:37;;;;;;;215.55;181.50;;;17.40;99.90;;;;;;5047538;28;20423;-72
2022/08/05 04:58:04;;;;;;;216.50;181.20;;;17.40;99.90;;;;;;5048285;28;20050;-72
2022/08/05 05:00:31;;;;;;;230.50;192.18;;;17.30;99.90;;;;;;5049795;28;20072;-71
2022/08/05 05:02:58;;;;;;;221.73;187.02;;;17.40;99.90;;;;;;5051570;28;20128;-72
2022/08/05 05:05:27;;;;;;;217.05;186.18;;;17.40;99.90;;;;;;5052124;28;20041;-71
2022/08/05 05:07:54;;;;;;;212.45;182.88;;;17.40;99.90;;;;;;5034951;28;20056;-71
2022/08/05 05:10:21;;;;;;;208.65;179.68;;;17.40;99.90;;;;;;5051962;28;20064;-72
2022/08/05 05:12:48;;;;;;;212.50;183.30;;;17.40;99.90;;;;;;5052033;28;20139;-71
2022/08/05 05:15:15;;;;;;;215.45;183.95;;;17.40;99.90;;;;;;5051859;28;20060;-72
2022/08/05 05:17:43;;;;;;;214.38;184.07;;;17.40;99.90;;;;;;5068352;28;20060;-71
2022/08/05 05:20:12;;;;;;;210.80;181.43;;;17.40;99.90;;;;;;5051407;28;20064;-71
2022/08/05 05:22:41;;;;;;;220.32;182.50;;;17.30;99.90;;;;;;5051593;28;20084;-72
2022/08/05 05:25:09;;;;;;;208.40;175.98;;;17.30;99.90;;;;;;5051498;28;20136;-71
2022/08/05 05:27:37;;;;;;;208.25;176.68;;;17.30;99.90;;;;;;5049661;28;20560;-72
2022/08/05 05:30:05;;;;;;;202.73;172.05;;;17.30;99.90;;;;;;5051293;28;20108;-72
2022/08/05 05:32:32;;;;;;;203.13;171.32;;;17.30;99.90;;;;;;5052658;28;20072;-71
2022/08/05 05:34:59;;;;;;;206.00;176.05;;;17.30;99.90;;;;;;5068393;28;20056;-72
2022/08/05 05:37:26;;;;;;;207.68;177.48;;;17.40;99.90;;;;;;5050958;28;20049;-72
2022/08/05 05:39:54;;;;;;;208.48;175.85;;;17.40;99.90;;;;;;5051183;28;20077;-72
2022/08/05 05:42:21;;;;;;;206.70;178.63;;;17.40;99.90;;;;;;5052658;28;20132;-72
2022/08/05 05:44:48;;;;;;;210.90;178.25;;;17.40;99.90;;;;;;5056516;28;20049;-72
2022/08/05 05:47:16;;;;;;;212.38;181.07;;;17.40;99.90;;;;;;5050367;28;20382;-72
2022/08/05 05:49:43;;;;;;;205.65;173.75;;;17.40;99.90;;;;;;5052518;28;20049;-72
2022/08/05 05:52:10;;;;;;;212.98;177.63;;;17.30;99.90;;;;;;5052661;28;20493;-72
2022/08/05 05:54:37;;;;;;;204.05;174.32;;;17.30;99.90;;;;;;5051324;28;20061;-72
2022/08/05 05:57:05;;;;;;;202.25;175.45;;;17.30;99.90;;;;;;5067495;28;20053;-71
2022/08/05 05:59:32;;;;;;;204.95;175.38;;;17.30;99.90;;;;;;5050666;28;20120;-71
2022/08/05 06:01:59;;;;;;;206.13;173.68;;;17.30;99.90;;;;;;5049783;28;20042;-71
2022/08/05 06:04:26;;;;;;;197.80;171.23;;;17.40;99.90;;;;;;5052700;28;20129;-71
2022/08/05 06:06:53;;;;;;;200.73;172.18;;;17.40;99.90;;;;;;5052136;28;20049;-71
2022/08/05 06:09:20;;;;;;;202.40;173.32;;;17.40;99.90;;;;;;5050960;28;20050;-71
2022/08/05 06:11:47;;;;;;;207.30;174.68;;;17.50;99.90;;;;;;5051987;28;20060;-71
2022/08/05 06:14:15;;;;;;;203.10;175.90;;;17.60;99.90;;;;;;5052206;28;20132;-71
2022/08/05 06:16:42;;;;;;;194.32;167.77;;;17.70;99.90;;;;;;5052227;28;20140;-71
2022/08/05 06:19:08;;;;;;;208.13;176.30;;;17.80;99.90;;;;;;5050481;28;20553;-72
2022/08/05 06:21:36;;;;;;;197.60;170.02;;;17.80;99.80;;;;;;5050622;28;20077;-72
2022/08/05 06:24:04;;;;;;;199.05;172.68;;;17.90;99.60;;;;;;5050324;28;20052;-72
2022/08/05 06:26:31;;;;;;;209.55;182.48;;;17.90;99.60;;;;;;5067573;28;20045;-72
2022/08/05 06:28:58;;;;;;;209.45;182.73;;;17.90;99.40;;;;;;5050322;28;20135;-72
2022/08/05 06:31:26;;;;;;;199.35;173.57;;;17.90;99.30;;;;;;5038332;28;20048;-72
2022/08/05 06:33:53;;;;;;;205.75;179.27;;;17.90;99.30;;;;;;5040908;28;20045;-72
2022/08/05 06:36:20;;;;;;;210.13;184.43;;;18.00;99.10;;;;;;5041574;28;20052;-72
2022/08/05 06:38:49;;;;;;;208.18;184.13;;;18.00;99.20;;;;;;5055647;28;20053;-72
2022/08/05 06:41:16;;;;;;;212.48;185.05;;;18.00;99.40;;;;;;5059183;28;20145;-72
2022/08/05 06:43:43;;;;;;;213.93;186.25;;;18.00;99.40;;;;;;5057419;28;20056;-71
2022/08/05 06:49:00;;;;;;;340.25;303.58;;;18.10;99.40;;;;;;4997377;28;20058;-72
2022/08/05 06:51:27;;;;;;;352.80;314.90;;;18.20;98.90;;;;;;4989707;28;20055;-72
2022/08/05 06:53:54;;;;;;;320.38;285.48;;;18.20;99.00;;;;;;4988403;28;20058;-72
2022/08/05 06:56:21;;;;;;;296.52;264.10;;;18.30;98.80;;;;;;4988519;28;20086;-72
2022/08/05 06:58:48;;;;;;;265.17;233.88;;;18.40;98.70;;;;;;4989130;28;20142;-72
2022/08/05 07:01:16;;;;;;;279.40;248.50;;;18.40;98.70;;;;;;5022867;28;20468;-72
2022/08/05 07:03:43;;;;;;;276.88;246.23;;;18.50;98.60;;;;;;4991046;28;20061;-72
2022/08/05 07:06:11;;;;;;;252.07;224.05;;;18.60;98.00;;;;;;4989808;28;20600;-72
2022/08/05 07:08:38;;;;;;;234.77;208.57;;;18.80;98.30;;;;;;4989436;28;20964;-72
2022/08/05 07:11:05;;;;;;;264.27;235.07;;;18.80;98.20;;;;;;5001682;28;20079;-72
2022/08/05 07:19:03;;;;;;;230.13;202.95;;;18.90;97.00;;;;;;4989540;28;20066;-72
2022/08/05 07:21:32;;;;;;;229.50;203.30;;;18.90;96.90;;;;;;4991125;28;20146;-72
2022/08/05 07:23:58;;;;;;;248.48;220.35;;;18.90;97.30;;;;;;4991113;28;20491;-72
2022/08/05 07:26:25;;;;;;;238.38;212.07;;;19.00;97.60;;;;;;4990291;28;20065;-72
2022/08/05 07:28:52;;;;;;;225.48;197.88;;;19.10;97.30;;;;;;5003392;28;20144;-72
2022/08/05 07:31:19;;;;;;;216.10;192.45;;;19.20;97.40;;;;;;4991201;28;20069;-72
2022/08/05 07:33:46;;;;;;;215.85;192.50;;;19.30;97.10;;;;;;4989505;28;20076;-72
2022/08/05 07:36:13;;;;;;;243.75;217.18;;;19.50;96.60;;;;;;4989640;28;20904;-72
2022/08/05 07:38:42;;;;;;;218.00;194.23;;;19.60;96.30;;;;;;4988695;28;20125;-72
2022/08/05 07:41:11;;;;;;;230.52;205.57;;;19.70;95.10;;;;;;4990853;28;20145;-72
2022/08/05 07:43:38;;;;;;;232.18;206.80;;;19.70;95.30;;;;;;4989429;28;20042;-72
2022/08/05 07:46:05;;;;;;;241.35;215.45;;;19.80;95.00;;;;;;4973687;28;20053;-72
2022/08/05 07:48:32;;;;;;;229.20;204.48;;;19.90;95.20;;;;;;4990174;28;20058;-72
2022/08/05 07:51:00;;;;;;;226.85;202.75;;;20.00;95.30;;;;;;4989893;28;20809;-72
2022/08/05 07:53:27;;;;;;;218.30;195.13;;;20.00;94.80;;;;;;4997032;28;20050;-72
2022/08/05 07:55:55;;;;;;;221.85;198.55;;;20.10;94.70;;;;;;4994840;28;20121;-72
2022/08/05 07:58:22;;;;;;;220.43;196.88;;;20.20;95.00;;;;;;5007153;28;20134;-72
2022/08/05 08:00:49;;;;;;;219.50;196.07;;;20.30;93.40;;;;;;4989803;28;20523;-72
2022/08/05 08:03:16;;;;;;;199.00;177.77;;;20.30;93.70;;;;;;4989741;28;20155;-72
2022/08/05 08:05:44;;;;;;;194.80;174.25;;;20.20;93.70;;;;;;4988861;28;20520;-72
2022/08/05 08:08:11;;;;;;;202.45;180.80;;;20.20;93.40;;;;;;4972398;28;20166;-72
2022/08/05 08:10:38;;;;;;;194.70;173.60;;;20.20;93.30;;;;;;4990936;28;20098;-72
2022/08/05 08:13:07;;;;;;;202.63;180.95;;;20.20;93.90;;;;;;4990961;28;20061;-72
2022/08/05 08:15:36;;;;;;;253.15;226.10;;;20.20;93.40;;;;;;4990213;28;20050;-72
2022/08/05 08:18:03;;;;;;;263.45;235.57;;;20.20;93.60;;;;;;4989084;28;20058;-72
2022/08/05 08:20:30;;;;;;;264.90;236.85;;;20.10;94.30;;;;;;4920564;28;20134;-72
2022/08/05 08:22:59;;;;;;;257.35;229.98;;;20.20;93.80;;;;;;4990803;28;20047;-72
2022/08/05 08:25:27;;;;;;;255.02;227.80;;;20.30;93.80;;;;;;4972695;28;20053;-72
2022/08/05 08:27:54;;;;;;;225.25;201.32;;;20.30;94.30;;;;;;4997354;28;20118;-72
2022/08/05 08:30:22;;;;;;;237.15;211.95;;;20.30;94.40;;;;;;5005505;28;20505;-73
2022/08/05 08:32:49;;;;;;;227.63;203.48;;;20.30;93.70;;;;;;5005595;28;20050;-72
2022/08/05 08:35:16;;;;;;;234.27;209.20;;;20.30;94.10;;;;;;5005844;28;20094;-72
2022/08/05 08:37:43;;;;;;;231.82;207.30;;;20.30;93.50;;;;;;5007298;28;20045;-72
2022/08/05 08:40:11;;;;;;;258.60;231.30;;;20.40;93.50;;;;;;5009191;28;20059;-73
2022/08/05 08:42:38;;;;;;;254.80;227.90;;;20.50;92.50;;;;;;5009364;28;20138;-72
2022/08/05 08:45:07;;;;;;;237.98;212.77;;;20.70;91.40;;;;;;4994286;28;20055;-72
2022/08/05 08:47:35;;;;;;;298.45;267.52;;;20.70;90.90;;;;;;5008149;28;20057;-72
2022/08/05 08:50:05;;;;;;;272.42;244.13;;;20.80;90.50;;;;;;5004606;28;20061;-72
2022/08/05 08:52:35;;;;;;;266.92;238.95;;;20.80;90.40;;;;;;4972993;28;20048;-73
2022/08/05 08:55:03;;;;;;;278.10;249.40;;;20.90;89.30;;;;;;4973950;28;20066;-73
2022/08/05 08:57:30;;;;;;;274.02;245.45;;;21.00;90.20;;;;;;5005998;28;20050;-72
2022/08/05 08:59:58;;;;;;;253.00;226.27;;;21.20;87.00;;;;;;5013368;28;20136;-73
2022/08/05 09:02:26;;;;;;;263.83;236.25;;;21.10;87.00;;;;;;5013053;28;20125;-72
2022/08/05 09:04:54;;;;;;;263.30;235.63;;;21.20;83.90;;;;;;5013202;28;20077;-73
2022/08/05 09:07:21;;;;;;;250.45;224.13;;;21.10;86.80;;;;;;5011325;28;20043;-73
2022/08/05 09:09:47;;;;;;;281.20;251.65;;;21.10;86.20;;;;;;5028098;28;20046;-72
2022/08/05 09:12:15;;;;;;;259.83;232.43;;;21.20;86.20;;;;;;5001594;28;20133;-72
2022/08/05 09:14:42;;;;;;;238.65;213.13;;;21.20;83.80;;;;;;4995487;28;20058;-73
2022/08/05 09:17:11;;;;;;;231.57;206.98;;;21.40;79.90;;;;;;4991936;28;20046;-72
2022/08/05 09:19:38;;;;;;;246.60;220.45;;;21.50;77.80;;;;;;4992205;28;20054;-72
2022/08/05 09:22:07;;;;;;;247.18;221.10;;;21.60;77.00;;;;;;4992204;28;20110;-72
2022/08/05 09:24:36;;;;;;;249.38;222.85;;;21.80;79.80;;;;;;4993934;28;21143;-73
2022/08/05 09:27:08;;;;;;;274.27;245.52;;;21.90;75.20;;;;;;5014055;28;20047;-72
2022/08/05 09:29:41;;;;;;;262.35;235.05;;;21.90;70.30;;;;;;5008656;28;20061;-72
2022/08/05 09:32:09;;;;;;;254.35;227.50;;;21.80;70.70;;;;;;4992297;28;20195;-72
2022/08/05 09:34:47;;;;;;;273.77;245.13;;;21.70;71.70;;;;;;4991496;28;20968;-72
2022/08/05 09:37:20;;;;;;;274.33;245.90;;;21.60;73.70;;;;;;4999640;28;20047;-73
2022/08/05 09:39:47;;;;;;;258.20;231.27;;;21.50;75.00;;;;;;5006664;28;20054;-72
2022/08/05 09:42:16;;;;;;;256.40;229.48;;;21.50;74.80;;;;;;4999450;28;20121;-72
2022/08/05 09:44:44;;;;;;;252.43;226.18;;;21.40;72.80;;;;;;4993165;28;20054;-72
2022/08/05 09:47:13;;;;;;;244.52;218.85;;;21.40;73.50;;;;;;5005465;28;20043;-72
2022/08/05 09:49:43;;;;;;;271.45;243.43;;;21.40;70.90;;;;;;5015237;28;20483;-73
2022/08/05 09:52:24;;;;;;;292.85;262.85;;;21.50;71.10;;;;;;4991029;28;20138;-73
2022/08/05 09:54:56;;;;;;;293.05;262.08;;;21.60;71.90;;;;;;4991463;28;20084;-73
2022/08/05 09:57:35;;;;;;;282.02;252.90;;;21.60;69.70;;;;;;4991375;28;20047;-73
2022/08/05 10:00:10;;;;;;;270.48;242.38;;;21.60;71.10;;;;;;4987347;28;20059;-72
2022/08/05 10:02:39;;;;;;;269.95;241.85;;;21.70;72.90;;;;;;4973474;28;20102;-71
2022/08/05 10:05:12;;;;;;;265.52;237.85;;;21.80;72.00;;;;;;4992210;28;20871;-72
2022/08/05 10:07:52;;;;;;;254.25;228.05;;;21.80;69.80;;;;;;4990709;28;20062;-72
2022/08/05 10:10:20;;;;;;;252.27;226.18;;;21.80;71.50;;;;;;4988667;28;20440;-72
2022/08/05 10:12:50;;;;;;;230.77;206.63;;;21.80;70.30;;;;;;4988765;28;20058;-72
2022/08/05 10:15:20;;;;;;;284.85;255.55;;;21.70;66.80;;;;;;4991018;28;20101;-72
2022/08/05 10:18:10;;;;;;;269.40;241.27;;;21.70;65.00;;;;;;4994902;28;20055;-71
2022/08/05 10:20:41;;;;;;;289.85;259.88;;;21.70;62.70;;;;;;5005437;28;20058;-72
2022/08/05 10:23:11;;;;;;;308.95;277.65;;;21.70;62.80;;;;;;4992028;28;20057;-72
2022/08/05 10:25:38;;;;;;;285.85;256.35;;;21.80;64.60;;;;;;4990826;28;20074;-72
2022/08/05 10:28:06;;;;;;;276.95;248.68;;;21.90;62.20;;;;;;4997375;28;20062;-72
2022/08/05 10:30:33;;;;;;;295.33;264.98;;;21.90;62.30;;;;;;4998022;28;20054;-72
2022/08/05 10:33:00;;;;;;;305.38;274.50;;;22.00;63.60;;;;;;4989477;28;20059;-72
2022/08/05 10:35:27;;;;;;;294.45;264.48;;;22.00;65.10;;;;;;5022967;28;20547;-72
2022/08/05 10:37:55;;;;;;;300.60;270.27;;;22.10;60.40;;;;;;4991472;28;20051;-71
2022/08/05 10:40:29;;;;;;;302.35;271.50;;;22.10;60.30;;;;;;4992005;28;20059;-71
2022/08/05 10:43:02;;;;;;;272.27;244.20;;;22.00;60.00;;;;;;4990915;28;20116;-71
2022/08/05 10:45:30;;;;;;;343.97;309.57;;;21.90;59.00;;;;;;5021099;28;20051;-72
2022/08/05 10:47:57;;;;;;;267.17;239.68;;;21.90;61.20;;;;;;5003370;28;20756;-72
2022/08/05 10:50:24;;;;;;;294.65;264.83;;;22.00;57.70;;;;;;5016748;28;20484;-72
2022/08/05 10:52:55;;;;;;;267.35;239.95;;;22.20;56.90;;;;;;5000186;28;20962;-72
2022/08/05 10:55:24;;;;;;;254.20;227.75;;;22.30;58.50;;;;;;5007210;28;20503;-72
2022/08/05 10:58:08;;;;;;;287.30;257.92;;;22.40;57.20;;;;;;4911179;28;20054;-72
2022/08/05 11:00:35;;;;;;;281.95;253.15;;;22.40;54.30;;;;;;4971639;28;20051;-72
2022/08/05 11:03:10;;;;;;;277.67;249.95;;;22.40;53.30;;;;;;4998733;28;20077;-72
2022/08/05 11:05:38;;;;;;;568.60;521.05;;;22.50;56.60;;;;;;4974387;28;20643;-72
2022/08/05 11:08:07;;;;;;;574.72;526.95;;;22.50;51.70;;;;;;4988623;28;20058;-71
2022/08/05 11:10:38;;;;;;;521.65;476.00;;;22.30;51.20;;;;;;4998384;28;20134;-72
2022/08/05 11:13:07;;;;;;;599.65;550.88;;;22.20;51.50;;;;;;4990504;28;20055;-72
2022/08/05 11:15:39;;;;;;;606.78;557.55;;;22.30;51.20;;;;;;4993202;28;20046;-72
2022/08/05 11:18:08;;;;;;;565.95;518.80;;;22.50;53.30;;;;;;4919000;28;20050;-72
2022/08/05 11:20:44;;;;;;;555.28;508.63;;;22.70;52.50;;;;;;4999896;28;20062;-71
2022/08/05 11:23:33;;;;;;;507.65;462.70;;;22.70;48.40;;;;;;4989387;28;20556;-71
2022/08/05 11:26:09;;;;;;;478.23;434.92;;;22.80;49.40;;;;;;4989427;28;20090;-71
2022/08/05 11:28:43;;;;;;;510.95;466.33;;;22.70;46.90;;;;;;4995156;28;20106;-71
2022/08/05 11:31:34;;;;;;;439.52;399.10;;;22.80;50.10;;;;;;4989720;28;20193;-71
2022/08/05 11:34:07;;;;;;;419.52;380.17;;;23.00;49.90;;;;;;4983876;28;20149;-71
2022/08/05 11:36:49;;;;;;;403.38;365.08;;;23.10;47.60;;;;;;4989476;28;20055;-72
2022/08/05 11:39:32;;;;;;;434.73;394.00;;;23.20;48.80;;;;;;5008346;28;20137;-71
2022/08/05 11:42:02;;;;;;;392.05;354.20;;;22.90;47.60;;;;;;4990280;28;20145;-71
2022/08/05 11:44:37;;;;;;;491.33;446.95;;;22.50;50.00;;;;;;4989919;28;20083;-71
2022/08/05 11:47:06;;;;;;;571.85;524.35;;;22.40;51.80;;;;;;4987939;28;20062;-71
2022/08/05 11:49:33;;;;;;;458.15;416.38;;;22.40;51.80;;;;;;4997707;28;20054;-72
2022/08/05 11:52:01;;;;;;;521.25;476.15;;;22.40;50.70;;;;;;4997221;28;20138;-72
2022/08/05 11:54:31;;;;;;;448.88;407.85;;;22.50;50.30;;;;;;4989223;28;20125;-71
2022/08/05 11:56:59;;;;;;;559.58;512.08;;;22.50;51.10;;;;;;4989396;28;20580;-71
2022/08/05 11:59:29;;;;;;;588.00;539.60;;;22.30;50.90;;;;;;4990408;28;20081;-71
2022/08/05 12:01:59;;;;;;;429.05;387.98;;;22.00;52.30;;;;;;5019178;28;20051;-71
2022/08/05 12:04:29;;;;;;;423.27;382.75;;;21.80;52.80;;;;;;4990879;28;20982;-71
2022/08/05 12:06:59;;;;;;;456.85;414.10;;;21.80;52.90;;;;;;4990015;28;20146;-71
2022/08/05 12:09:29;;;;;;;404.35;365.10;;;21.90;53.90;;;;;;4997057;28;20136;-71
2022/08/05 12:11:56;;;;;;;415.10;375.15;;;22.20;53.60;;;;;;4999227;28;20043;-71
2022/08/05 12:14:24;;;;;;;385.42;347.63;;;22.40;53.30;;;;;;4990950;28;20837;-71
2022/08/05 12:16:52;;;;;;;455.95;413.88;;;22.40;53.70;;;;;;5001023;28;20147;-71
2022/08/05 12:19:21;;;;;;;477.80;434.25;;;22.50;57.00;;;;;;4993421;28;20142;-71
2022/08/05 12:21:50;;;;;;;460.10;417.88;;;22.60;54.00;;;;;;4993986;28;20074;-71
2022/08/05 12:24:18;;;;;;;415.63;376.38;;;22.50;55.70;;;;;;4991498;28;20435;-72
2022/08/05 12:26:47;;;;;;;380.70;343.83;;;22.60;55.60;;;;;;4994524;28;20053;-71